createdAt,value
2022-11-20T00:01:11.426Z,8.86
2022-11-20T00:03:38.322Z,8.73
2022-11-20T00:06:07.675Z,8.63
2022-11-20T00:08:34.703Z,8.49
2022-11-20T00:11:14.278Z,8.39
2022-11-20T00:13:42.900Z,8.34
2022-11-20T00:16:12.466Z,8.25
2022-11-20T00:18:39.193Z,8.20
2022-11-20T00:21:20.149Z,8.14
2022-11-20T00:23:49.738Z,8.12
2022-11-20T00:26:18.618Z,8.11
2022-11-20T00:28:53.551Z,8.10
2022-11-20T00:31:20.216Z,8.09
2022-11-20T00:33:47.084Z,8.08
2022-11-20T00:36:28.408Z,8.07
2022-11-20T00:38:56.942Z,8.03
2022-11-20T00:41:24.637Z,8.04
2022-11-20T00:43:53.469Z,8.02
2022-11-20T00:46:22.218Z,7.99
2022-11-20T00:48:49.203Z,8.00
2022-11-20T00:51:18.499Z,8.03
2022-11-20T00:53:45.859Z,8.03
2022-11-20T00:56:15.892Z,8.05
2022-11-20T00:58:44.280Z,8.08
2022-11-20T01:01:12.716Z,8.06
2022-11-20T01:03:41.341Z,8.07
2022-11-20T01:06:11.975Z,8.05
2022-11-20T01:08:39.002Z,8.00
2022-11-20T01:11:08.750Z,7.95
2022-11-20T01:13:38.612Z,7.87
2022-11-20T01:16:14.122Z,7.83
2022-11-20T01:18:44.083Z,7.75
2022-11-20T01:21:15.243Z,7.69
2022-11-20T01:23:43.372Z,7.65
2022-11-20T01:26:16.145Z,7.62
2022-11-20T01:28:43.365Z,7.53
2022-11-20T01:31:19.289Z,7.47
2022-11-20T01:33:47.513Z,7.49
2022-11-20T01:36:16.273Z,7.47
2022-11-20T01:38:43.453Z,7.46
2022-11-20T01:41:11.246Z,7.48
2022-11-20T01:43:37.815Z,7.44
2022-11-20T01:46:17.809Z,7.35
2022-11-20T01:48:50.293Z,7.30
2022-11-20T01:51:26.567Z,7.20
2022-11-20T01:53:57.493Z,7.13
2022-11-20T01:56:25.687Z,7.10
2022-11-20T01:58:57.673Z,7.01
2022-11-20T02:01:24.471Z,7.01
2022-11-20T02:03:51.854Z,6.98
2022-11-20T02:06:31.954Z,7.05
2022-11-20T02:08:58.455Z,7.07
2022-11-20T02:11:25.092Z,6.99
2022-11-20T02:13:51.869Z,6.96
2022-11-20T02:16:23.606Z,6.96
2022-11-20T02:18:50.929Z,7.00
2022-11-20T02:21:34.192Z,7.01
2022-11-20T02:24:08.419Z,6.98
2022-11-20T02:27:04.165Z,6.96
2022-11-20T02:29:38.502Z,6.96
2022-11-20T02:32:05.311Z,6.99
2022-11-20T02:34:32.268Z,6.99
2022-11-20T02:37:00.571Z,6.99
2022-11-20T02:39:29.275Z,6.96
2022-11-20T02:41:57.478Z,6.99
2022-11-20T02:44:23.971Z,6.90
2022-11-20T02:46:50.548Z,6.85
2022-11-20T02:49:18.045Z,6.83
2022-11-20T02:51:44.930Z,6.78
2022-11-20T02:54:11.617Z,6.75
2022-11-20T02:56:40.148Z,6.75
2022-11-20T02:59:07.154Z,6.76
2022-11-20T03:01:33.756Z,6.75
2022-11-20T03:04:00.466Z,6.72
2022-11-20T03:06:26.967Z,6.70
2022-11-20T03:08:53.533Z,6.71
2022-11-20T03:11:20.054Z,6.68
2022-11-20T03:13:46.710Z,6.70
2022-11-20T03:16:15.518Z,6.66
2022-11-20T03:18:42.965Z,6.59
2022-11-20T03:21:11.393Z,6.57
2022-11-20T03:23:39.117Z,6.53
2022-11-20T03:26:13.858Z,6.50
2022-11-20T03:28:40.636Z,6.54
2022-11-20T03:31:09.664Z,6.48
2022-11-20T03:33:36.467Z,6.45
2022-11-20T03:36:05.730Z,6.46
2022-11-20T03:38:32.811Z,6.40
2022-11-20T03:41:07.013Z,6.32
2022-11-20T03:43:34.410Z,6.24
2022-11-20T03:46:01.568Z,6.25
2022-11-20T03:48:28.527Z,6.20
2022-11-20T03:51:10.012Z,6.28
2022-11-20T03:53:36.632Z,6.28
2022-11-20T03:56:03.749Z,6.38
2022-11-20T03:58:30.247Z,6.36
2022-11-20T04:00:56.940Z,6.37
2022-11-20T04:03:23.488Z,6.33
2022-11-20T04:05:50.038Z,6.30
2022-11-20T04:08:16.571Z,6.22
2022-11-20T04:10:43.101Z,6.16
2022-11-20T04:13:09.619Z,6.10
2022-11-20T04:15:38.454Z,6.07
2022-11-20T04:18:05.191Z,6.02
2022-11-20T04:20:31.788Z,5.98
2022-11-20T04:22:58.351Z,5.90
2022-11-20T04:25:24.838Z,5.87
2022-11-20T04:27:51.349Z,5.89
2022-11-20T04:30:17.904Z,5.88
2022-11-20T04:32:44.422Z,5.88
2022-11-20T04:35:10.909Z,5.92
2022-11-20T04:37:37.403Z,5.87
2022-11-20T04:40:04.219Z,5.89
2022-11-20T04:42:30.825Z,5.87
2022-11-20T04:44:57.920Z,5.87
2022-11-20T04:47:24.745Z,5.88
2022-11-20T04:49:51.415Z,5.85
2022-11-20T04:52:18.047Z,5.79
2022-11-20T04:54:44.615Z,5.73
2022-11-20T04:57:14.481Z,5.70
2022-11-20T04:59:41.398Z,5.68
2022-11-20T05:02:08.263Z,5.62
2022-11-20T05:04:34.818Z,5.64
2022-11-20T05:07:01.920Z,5.59
2022-11-20T05:09:28.528Z,5.56
2022-11-20T05:11:55.158Z,5.57
2022-11-20T05:14:21.668Z,5.56
2022-11-20T05:16:48.472Z,5.54
2022-11-20T05:19:15.062Z,5.58
2022-11-20T05:21:41.786Z,5.51
2022-11-20T05:24:08.528Z,5.47
2022-11-20T05:26:35.159Z,5.44
2022-11-20T05:29:01.712Z,5.36
2022-11-20T05:31:28.571Z,5.25
2022-11-20T05:33:57.136Z,5.25
2022-11-20T05:36:24.193Z,5.19
2022-11-20T05:38:51.936Z,5.16
2022-11-20T05:41:21.537Z,5.20
2022-11-20T05:43:49.742Z,5.24
2022-11-20T05:46:24.784Z,5.24
2022-11-20T05:48:54.760Z,5.25
2022-11-20T05:51:22.017Z,5.24
2022-11-20T05:53:49.051Z,5.19
2022-11-20T05:56:22.470Z,5.24
2022-11-20T05:58:49.742Z,5.25
2022-11-20T06:01:22.108Z,5.21
2022-11-20T06:03:51.814Z,5.09
2022-11-20T06:06:19.827Z,4.96
2022-11-20T06:08:46.378Z,4.99
2022-11-20T06:11:14.161Z,4.98
2022-11-20T06:13:42.548Z,4.96
2022-11-20T06:16:10.865Z,4.94
2022-11-20T06:18:37.689Z,4.97
2022-11-20T06:21:07.626Z,4.99
2022-11-20T06:23:35.530Z,5.00
2022-11-20T06:26:04.554Z,5.02
2022-11-20T06:28:31.175Z,5.05
2022-11-20T06:30:58.321Z,5.07
2022-11-20T06:33:25.055Z,5.05
2022-11-20T06:35:56.871Z,5.11
2022-11-20T06:38:27.758Z,5.16
2022-11-20T06:40:54.927Z,5.18
2022-11-20T06:43:21.718Z,5.26
2022-11-20T06:45:56.320Z,5.45
2022-11-20T06:48:24.191Z,5.41
2022-11-20T06:50:50.806Z,5.47
2022-11-20T06:53:17.599Z,5.48
2022-11-20T06:55:45.770Z,5.48
2022-11-20T06:58:12.943Z,5.56
2022-11-20T07:00:40.024Z,5.78
2022-11-20T07:03:07.371Z,6.00
2022-11-20T07:05:34.269Z,6.29
2022-11-20T07:08:00.931Z,6.93
2022-11-20T07:10:27.753Z,7.48
2022-11-20T07:12:54.992Z,8.09
2022-11-20T07:15:23.465Z,8.84
2022-11-20T07:17:50.112Z,9.47
2022-11-20T07:20:16.632Z,10.24
2022-11-20T07:22:43.547Z,10.85
2022-11-20T07:25:12.094Z,11.47
2022-11-20T07:27:38.644Z,11.72
2022-11-20T07:30:06.750Z,12.18
2022-11-20T07:32:33.376Z,12.58
2022-11-20T07:34:59.843Z,12.89
2022-11-20T07:37:29.136Z,13.15
2022-11-20T07:39:55.978Z,13.39
2022-11-20T07:42:22.706Z,13.74
2022-11-20T07:44:49.590Z,14.41
2022-11-20T07:47:16.296Z,14.86
2022-11-20T07:49:43.189Z,14.87
2022-11-20T07:52:09.758Z,14.85
2022-11-20T07:54:37.490Z,15.02
2022-11-20T07:57:04.079Z,15.13
2022-11-20T07:59:30.633Z,15.18
2022-11-20T08:02:05.783Z,15.59
2022-11-20T08:04:33.330Z,15.71
2022-11-20T08:07:00.070Z,16.05
2022-11-20T08:09:26.699Z,16.21
2022-11-20T08:12:12.140Z,16.37
2022-11-20T08:14:38.750Z,16.41
2022-11-20T08:17:05.305Z,16.53
2022-11-20T08:19:31.894Z,16.32
2022-11-20T08:21:59.719Z,16.30
2022-11-20T08:24:27.379Z,16.15
2022-11-20T08:26:54.141Z,16.30
2022-11-20T08:29:21.118Z,16.52
2022-11-20T08:31:47.827Z,16.74
2022-11-20T08:34:18.759Z,16.79
2022-11-20T08:36:45.769Z,17.05
2022-11-20T08:39:14.078Z,17.25
2022-11-20T08:41:40.595Z,17.69
2022-11-20T08:44:08.759Z,18.04
2022-11-20T08:46:38.290Z,18.04
2022-11-20T08:49:06.956Z,17.95
2022-11-20T08:51:34.428Z,17.91
2022-11-20T08:54:01.586Z,17.88
2022-11-20T08:56:28.709Z,17.89
2022-11-20T08:59:20.088Z,17.99
2022-11-20T09:01:41.819Z,18.24
2022-11-20T09:04:08.400Z,18.40
2022-11-20T09:06:39.271Z,18.77
2022-11-20T09:09:07.181Z,18.74
2022-11-20T09:11:35.293Z,19.10
2022-11-20T09:14:03.608Z,18.98
2022-11-20T09:16:30.506Z,18.87
2022-11-20T09:19:20.260Z,19.43
2022-11-20T09:21:43.606Z,19.58
2022-11-20T09:24:10.343Z,19.57
2022-11-20T09:26:36.979Z,20.12
2022-11-20T09:29:03.595Z,20.06
2022-11-20T09:31:30.140Z,19.93
2022-11-20T09:33:56.710Z,19.77
2022-11-20T09:36:23.301Z,19.85
2022-11-20T09:38:50.160Z,20.26
2022-11-20T09:41:36.832Z,20.02
2022-11-20T09:44:33.696Z,20.00
2022-11-20T09:47:12.210Z,20.09
2022-11-20T09:49:57.316Z,20.25
2022-11-20T09:52:29.614Z,20.32
2022-11-20T09:54:56.527Z,20.21
2022-11-20T09:57:32.987Z,20.19
2022-11-20T10:00:06.040Z,20.25
2022-11-20T10:03:14.867Z,20.14
2022-11-20T10:05:48.346Z,19.70
2022-11-20T10:08:25.938Z,19.78
2022-11-20T10:11:21.870Z,20.25
2022-11-20T10:13:53.977Z,20.00
2022-11-20T10:16:23.838Z,20.11
2022-11-20T10:19:29.110Z,20.03
2022-11-20T10:22:12.344Z,19.91
2022-11-20T10:25:06.897Z,19.80
2022-11-20T10:27:33.394Z,19.67
2022-11-20T10:30:02.929Z,19.50
2022-11-20T10:32:39.809Z,19.48
2022-11-20T10:35:15.557Z,19.28
2022-11-20T10:37:46.511Z,19.29
2022-11-20T10:40:35.213Z,19.48
2022-11-20T10:43:33.662Z,19.67
2022-11-20T10:46:06.155Z,19.55
2022-11-20T10:48:33.473Z,19.75
2022-11-20T10:51:07.299Z,19.84
2022-11-20T10:53:45.104Z,19.57
2022-11-20T10:56:25.827Z,19.30
2022-11-20T10:59:05.704Z,19.24
2022-11-20T11:01:32.244Z,19.16
2022-11-20T11:03:59.787Z,19.33
2022-11-20T11:06:39.818Z,18.97
2022-11-20T11:09:44.468Z,18.72
2022-11-20T11:12:12.000Z,18.77
2022-11-20T11:14:51.284Z,19.08
2022-11-20T11:17:31.865Z,19.18
2022-11-20T11:20:06.221Z,19.09
2022-11-20T11:22:35.520Z,19.29
2022-11-20T11:25:02.523Z,19.31
2022-11-20T11:27:29.297Z,19.12
2022-11-20T11:30:15.240Z,19.48
2022-11-20T11:32:42.327Z,19.74
2022-11-20T11:35:24.901Z,19.76
2022-11-20T11:37:54.906Z,19.60
2022-11-20T11:40:26.307Z,19.80
2022-11-20T11:43:00.065Z,19.54
2022-11-20T11:45:27.301Z,19.47
2022-11-20T11:47:57.558Z,19.62
2022-11-20T11:50:30.143Z,19.55
2022-11-20T11:52:59.685Z,19.54
2022-11-20T11:55:26.192Z,19.68
2022-11-20T11:57:52.652Z,19.35
2022-11-20T12:00:22.103Z,19.72
2022-11-20T12:02:51.432Z,20.05
2022-11-20T12:05:23.144Z,20.15
2022-11-20T12:07:59.052Z,20.04
2022-11-20T12:10:37.432Z,20.09
2022-11-20T12:13:27.237Z,20.13
2022-11-20T12:15:54.324Z,20.34
2022-11-20T12:18:22.683Z,20.18
2022-11-20T12:21:12.820Z,19.98
2022-11-20T12:23:57.876Z,19.96
2022-11-20T12:26:29.570Z,18.91
2022-11-20T12:29:10.855Z,19.02
2022-11-20T12:31:53.392Z,19.27
2022-11-20T12:34:32.072Z,18.96
2022-11-20T12:37:37.939Z,18.09
2022-11-20T12:40:29.333Z,17.92
2022-11-20T12:43:21.122Z,17.10
2022-11-20T12:45:53.563Z,17.14
2022-11-20T12:48:32.297Z,17.00
2022-11-20T12:51:15.118Z,16.72
2022-11-20T12:54:21.227Z,16.36
2022-11-20T12:57:05.760Z,16.23
2022-11-20T12:59:50.554Z,16.25
2022-11-20T13:02:26.623Z,15.90
2022-11-20T13:05:11.569Z,15.94
2022-11-20T13:07:38.863Z,15.74
2022-11-20T13:10:14.963Z,15.61
2022-11-20T13:12:56.132Z,15.63
2022-11-20T13:15:49.981Z,15.72
2022-11-20T13:18:17.122Z,15.83
2022-11-20T13:20:45.505Z,15.20
2022-11-20T13:23:12.793Z,15.29
2022-11-20T13:25:40.864Z,15.41
2022-11-20T13:28:10.401Z,15.44
2022-11-20T13:30:49.448Z,15.48
2022-11-20T13:33:36.141Z,15.57
2022-11-20T13:36:08.847Z,15.55
2022-11-20T13:38:48.436Z,15.54
2022-11-20T13:41:28.671Z,15.20
2022-11-20T13:43:59.842Z,15.26
2022-11-20T13:46:46.356Z,15.25
2022-11-20T13:49:27.283Z,15.24
2022-11-20T13:52:16.045Z,15.22
2022-11-20T13:55:03.669Z,15.24
2022-11-20T13:57:36.057Z,15.20
2022-11-20T14:00:15.729Z,15.03
2022-11-20T14:02:44.008Z,14.92
2022-11-20T14:05:22.062Z,14.98
2022-11-20T14:07:50.357Z,14.95
2022-11-20T14:10:32.412Z,14.83
2022-11-20T14:13:10.454Z,14.83
2022-11-20T14:15:43.324Z,14.81
2022-11-20T14:18:25.611Z,14.83
2022-11-20T14:20:52.225Z,14.75
2022-11-20T14:23:30.498Z,14.68
2022-11-20T14:25:57.805Z,14.63
2022-11-20T14:28:26.989Z,14.57
2022-11-20T14:30:54.542Z,14.56
2022-11-20T14:33:25.797Z,14.35
2022-11-20T14:35:57.306Z,14.34
2022-11-20T14:38:29.749Z,14.26
2022-11-20T14:41:07.938Z,14.15
2022-11-20T14:43:36.904Z,14.05
2022-11-20T14:46:06.644Z,13.98
2022-11-20T14:48:39.213Z,13.95
2022-11-20T14:51:05.866Z,13.85
2022-11-20T14:53:32.427Z,13.79
2022-11-20T14:56:02.009Z,13.69
2022-11-20T14:58:31.382Z,13.64
2022-11-20T15:01:05.296Z,13.56
2022-11-20T15:03:37.332Z,13.43
2022-11-20T15:06:05.912Z,13.32
2022-11-20T15:08:32.547Z,13.25
2022-11-20T15:10:59.615Z,13.16
2022-11-20T15:13:39.350Z,13.08
2022-11-20T15:16:24.199Z,12.96
2022-11-20T15:18:51.185Z,12.90
2022-11-20T15:21:20.920Z,12.76
2022-11-20T15:23:48.223Z,12.66
2022-11-20T15:26:20.431Z,12.62
2022-11-20T15:28:50.884Z,12.51
2022-11-20T15:31:20.395Z,12.41
2022-11-20T15:33:47.342Z,12.30
2022-11-20T15:36:14.303Z,12.20
2022-11-20T15:38:41.467Z,12.02
2022-11-20T15:41:08.645Z,11.90
2022-11-20T15:43:35.227Z,11.78
2022-11-20T15:46:05.446Z,11.69
2022-11-20T15:48:47.610Z,11.63
2022-11-20T15:51:35.929Z,11.51
2022-11-20T15:54:21.726Z,11.37
2022-11-20T15:56:52.185Z,11.25
2022-11-20T15:59:20.168Z,11.11
2022-11-20T16:01:46.846Z,11.01
2022-11-20T16:04:17.486Z,10.93
2022-11-20T16:06:44.222Z,10.91
2022-11-20T16:09:11.597Z,10.92
2022-11-20T16:11:38.619Z,10.86
2022-11-20T16:14:25.444Z,10.80
2022-11-20T16:16:59.475Z,10.66
2022-11-20T16:19:26.221Z,10.56
2022-11-20T16:21:55.209Z,10.47
2022-11-20T16:24:27.061Z,10.40
2022-11-20T16:26:57.038Z,10.32
2022-11-20T16:29:24.385Z,10.24
2022-11-20T16:31:52.218Z,10.19
2022-11-20T16:34:19.515Z,10.13
2022-11-20T16:36:46.109Z,10.04
2022-11-20T16:39:20.397Z,10.01
2022-11-20T16:41:50.981Z,10.01
2022-11-20T16:44:18.104Z,9.94
2022-11-20T16:46:45.807Z,9.82
2022-11-20T16:49:14.458Z,9.78
2022-11-20T16:51:42.135Z,9.71
2022-11-20T16:54:16.406Z,9.68
2022-11-20T16:57:08.155Z,9.64
2022-11-20T16:59:34.727Z,9.54
2022-11-20T17:02:03.358Z,9.48
2022-11-20T17:07:14.672Z,9.40
2022-11-20T17:09:41.328Z,9.37
2022-11-20T17:12:12.149Z,9.32
2022-11-20T17:14:39.819Z,9.27
2022-11-20T17:17:06.384Z,9.17
2022-11-20T17:19:34.289Z,9.15
2022-11-20T17:22:00.984Z,9.07
2022-11-20T17:24:31.964Z,9.02
2022-11-20T17:26:59.242Z,8.94
2022-11-20T17:29:25.861Z,8.84
2022-11-20T17:31:54.434Z,8.77
2022-11-20T17:34:21.462Z,8.72
2022-11-20T17:36:49.542Z,8.63
2022-11-20T17:39:17.340Z,8.55
2022-11-20T17:41:44.521Z,8.46
2022-11-20T17:44:12.867Z,8.32
2022-11-20T17:46:39.890Z,8.25
2022-11-20T17:49:08.924Z,8.23
2022-11-20T17:51:35.442Z,8.21
2022-11-20T17:54:09.591Z,8.15
2022-11-20T17:56:55.283Z,8.18
2022-11-20T17:59:22.653Z,8.13
2022-11-20T18:01:50.573Z,8.10
2022-11-20T18:04:17.894Z,8.14
2022-11-20T18:06:44.475Z,8.17
2022-11-20T18:09:12.102Z,8.26
2022-11-20T18:11:41.282Z,8.31
2022-11-20T18:14:30.782Z,8.34
2022-11-20T18:17:00.116Z,8.34
2022-11-20T18:19:32.409Z,8.36
2022-11-20T18:22:04.113Z,8.36
2022-11-20T18:24:32.790Z,8.20
2022-11-20T18:27:00.209Z,8.10
2022-11-20T18:29:27.674Z,8.00
2022-11-20T18:31:54.620Z,7.93
2022-11-20T18:34:21.566Z,7.95
2022-11-20T18:36:49.488Z,7.99
2022-11-20T18:39:16.685Z,7.90
2022-11-20T18:42:03.955Z,7.78
2022-11-20T18:44:51.101Z,7.65
2022-11-20T18:47:27.781Z,7.52
2022-11-20T18:49:57.183Z,7.45
2022-11-20T18:52:26.960Z,7.45
2022-11-20T18:54:56.259Z,7.48
2022-11-20T18:57:25.589Z,7.49
2022-11-20T18:59:53.709Z,7.51
2022-11-20T19:02:20.962Z,7.49
2022-11-20T19:04:47.868Z,7.43
2022-11-20T19:07:15.596Z,7.42
2022-11-20T19:09:45.749Z,7.37
2022-11-20T19:12:13.569Z,7.32
2022-11-20T19:14:40.149Z,7.21
2022-11-20T19:17:07.455Z,7.20
2022-11-20T19:19:37.228Z,7.15
2022-11-20T19:22:25.549Z,7.08
2022-11-20T19:24:52.157Z,7.01
2022-11-20T19:27:19.073Z,6.97
2022-11-20T19:29:45.682Z,6.99
2022-11-20T19:32:13.972Z,7.00
2022-11-20T19:34:43.763Z,7.01
2022-11-20T19:37:10.430Z,6.97
2022-11-20T19:39:37.781Z,6.98
2022-11-20T19:42:04.363Z,6.96
2022-11-20T19:44:33.300Z,6.94
2022-11-20T19:47:00.832Z,6.92
2022-11-20T19:49:29.348Z,6.91
2022-11-20T19:51:56.848Z,6.83
2022-11-20T19:54:23.756Z,6.77
2022-11-20T19:56:50.643Z,6.72
2022-11-20T19:59:18.033Z,6.70
2022-11-20T20:02:00.589Z,6.66
2022-11-20T20:04:27.805Z,6.63
2022-11-20T20:06:54.379Z,6.59
2022-11-20T20:09:23.840Z,6.65
2022-11-20T20:11:54.086Z,6.60
2022-11-20T20:14:24.335Z,6.47
2022-11-20T20:16:56.159Z,6.55
2022-11-20T20:19:23.133Z,6.57
2022-11-20T20:21:50.153Z,6.54
2022-11-20T20:24:16.982Z,6.60
2022-11-20T20:26:47.441Z,6.64
2022-11-20T20:29:14.203Z,6.65
2022-11-20T20:31:40.893Z,6.63
2022-11-20T20:34:07.825Z,6.59
2022-11-20T20:36:39.829Z,6.60
2022-11-20T20:39:06.467Z,6.57
2022-11-20T20:41:33.093Z,6.52
2022-11-20T20:44:18.284Z,6.51
2022-11-20T20:46:44.850Z,6.50
2022-11-20T20:49:11.732Z,6.47
2022-11-20T20:51:38.698Z,6.40
2022-11-20T20:54:05.645Z,6.38
2022-11-20T20:56:32.320Z,6.31
2022-11-20T20:58:59.134Z,6.28
2022-11-20T21:01:28.723Z,6.23
2022-11-20T21:03:56.496Z,6.29
2022-11-20T21:06:23.648Z,6.29
2022-11-20T21:08:50.643Z,6.24
2022-11-20T21:11:21.141Z,6.21
2022-11-20T21:13:50.720Z,6.17
2022-11-20T21:16:19.350Z,6.19
2022-11-20T21:18:46.684Z,6.18
2022-11-20T21:21:33.417Z,6.15
2022-11-20T21:24:00.406Z,6.14
2022-11-20T21:26:27.030Z,6.17
2022-11-20T21:28:54.936Z,6.19
2022-11-20T21:31:24.924Z,6.20
2022-11-20T21:33:54.789Z,6.14
2022-11-20T21:36:24.078Z,6.15
2022-11-20T21:38:54.259Z,6.13
2022-11-20T21:41:21.117Z,6.07
2022-11-20T21:44:09.203Z,6.11
2022-11-20T21:46:38.625Z,6.17
2022-11-20T21:49:05.201Z,6.18
2022-11-20T21:51:31.840Z,6.15
2022-11-20T21:54:00.556Z,6.13
2022-11-20T21:56:27.926Z,6.11
2022-11-20T21:58:55.536Z,6.06
2022-11-20T22:01:29.126Z,6.02
2022-11-20T22:03:58.499Z,5.98
2022-11-20T22:06:25.956Z,5.99
2022-11-20T22:08:53.622Z,6.04
2022-11-20T22:11:21.762Z,6.03
2022-11-20T22:14:07.572Z,5.99
2022-11-20T22:16:35.585Z,6.01
2022-11-20T22:19:02.619Z,6.06
2022-11-20T22:21:39.401Z,6.05
2022-11-20T22:24:13.745Z,6.04
2022-11-20T22:27:02.451Z,6.02
2022-11-20T22:29:29.132Z,6.02
2022-11-20T22:31:55.730Z,5.94
2022-11-20T22:34:22.629Z,5.90
2022-11-20T22:36:49.765Z,5.85
2022-11-20T22:39:16.448Z,5.83
2022-11-20T22:41:43.036Z,5.79
2022-11-20T22:44:13.555Z,5.78
2022-11-20T22:46:40.069Z,5.75
2022-11-20T22:49:08.793Z,5.75
2022-11-20T22:51:41.635Z,5.73
2022-11-20T22:54:11.493Z,5.71
2022-11-20T22:56:39.402Z,5.71
2022-11-20T22:59:37.036Z,5.60
2022-11-20T23:02:03.593Z,5.63
2022-11-20T23:04:34.286Z,5.67
2022-11-20T23:07:00.871Z,5.71
2022-11-20T23:09:27.448Z,5.74
2022-11-20T23:11:54.012Z,5.80
2022-11-20T23:14:24.932Z,5.80
2022-11-20T23:16:54.051Z,5.90
2022-11-20T23:19:29.076Z,5.98
2022-11-20T23:21:55.597Z,5.97
2022-11-20T23:24:22.156Z,6.02
2022-11-20T23:26:48.737Z,6.02
2022-11-20T23:29:15.427Z,6.11
2022-11-20T23:31:42.162Z,6.13
2022-11-20T23:34:08.668Z,6.14
2022-11-20T23:36:35.226Z,6.17
2022-11-20T23:39:01.766Z,6.12
2022-11-20T23:41:28.374Z,6.15
2022-11-20T23:43:54.959Z,6.13
2022-11-20T23:46:21.537Z,6.25
2022-11-20T23:48:48.046Z,6.27
2022-11-20T23:51:14.725Z,6.34
2022-11-20T23:53:41.511Z,6.49
2022-11-20T23:56:08.290Z,6.58
2022-11-20T23:58:38.709Z,6.68
